createdAt,value
2022-12-08T00:01:15.674Z,100427.00
2022-12-08T00:04:17.344Z,100425.28
2022-12-08T00:07:37.371Z,100416.56
2022-12-08T00:10:48.897Z,100414.00
2022-12-08T00:13:51.092Z,100421.06
2022-12-08T00:16:53.478Z,100414.97
2022-12-08T00:19:55.021Z,100415.88
2022-12-08T00:22:56.762Z,100401.94
2022-12-08T00:26:02.445Z,100397.59
2022-12-08T00:29:04.946Z,100394.25
2022-12-08T00:32:06.978Z,100405.72
2022-12-08T00:35:08.820Z,100393.56
2022-12-08T00:38:10.405Z,100396.22
2022-12-08T00:41:17.637Z,100400.63
2022-12-08T00:44:19.416Z,100394.56
2022-12-08T00:47:24.638Z,100393.78
2022-12-08T00:50:26.580Z,100390.28
2022-12-08T00:53:28.282Z,100384.16
2022-12-08T00:56:30.257Z,100386.75
2022-12-08T00:59:31.804Z,100391.16
2022-12-08T01:02:34.433Z,100387.63
2022-12-08T01:05:35.969Z,100379.75
2022-12-08T01:08:38.119Z,100375.34
2022-12-08T01:11:39.692Z,100387.56
2022-12-08T01:14:41.227Z,100383.97
2022-12-08T01:17:42.771Z,100388.31
2022-12-08T01:20:44.295Z,100385.63
2022-12-08T01:23:46.398Z,100382.13
2022-12-08T01:26:49.824Z,100376.09
2022-12-08T01:29:51.647Z,100371.72
2022-12-08T01:32:53.183Z,100378.66
2022-12-08T01:35:55.508Z,100378.66
2022-12-08T01:38:59.621Z,100381.28
2022-12-08T01:42:01.146Z,100373.47
2022-12-08T01:45:07.693Z,100375.22
2022-12-08T01:48:15.481Z,100373.47
2022-12-08T01:51:17.677Z,100381.34
2022-12-08T01:54:21.692Z,100376.97
2022-12-08T01:57:43.382Z,100380.47
2022-12-08T02:00:45.204Z,100385.72
2022-12-08T02:04:02.076Z,100381.28
2022-12-08T02:07:08.153Z,100373.41
2022-12-08T02:10:14.482Z,100371.63
2022-12-08T02:13:18.986Z,100371.63
2022-12-08T02:16:35.872Z,100368.13
2022-12-08T02:19:59.053Z,100361.94
2022-12-08T02:23:05.974Z,100359.31
2022-12-08T02:26:52.686Z,100354.88
2022-12-08T02:30:05.946Z,100354.03
2022-12-08T02:33:16.876Z,100352.28
2022-12-08T02:36:35.456Z,100348.81
2022-12-08T02:40:07.641Z,100349.66
2022-12-08T02:43:33.055Z,100340.91
2022-12-08T02:46:42.442Z,100336.56
2022-12-08T02:49:44.171Z,100338.28
2022-12-08T02:52:48.085Z,100333.03
2022-12-08T02:56:31.806Z,100327.78
2022-12-08T02:59:38.502Z,100326.91
2022-12-08T03:02:40.007Z,100324.38
2022-12-08T03:05:50.722Z,100321.75
2022-12-08T03:08:56.155Z,100326.16
2022-12-08T03:12:20.619Z,100322.75
2022-12-08T03:15:23.017Z,100311.38
2022-12-08T03:18:31.965Z,100322.84
2022-12-08T03:21:35.131Z,100308.94
2022-12-08T03:24:39.557Z,100301.16
2022-12-08T03:27:41.643Z,100313.41
2022-12-08T03:30:47.900Z,100307.38
2022-12-08T03:33:52.576Z,100301.19
2022-12-08T03:36:54.691Z,100303.75
2022-12-08T03:39:56.919Z,100299.38
2022-12-08T03:42:58.538Z,100303.81
2022-12-08T03:46:00.132Z,100301.19
2022-12-08T03:49:01.764Z,100283.69
2022-12-08T03:52:03.584Z,100281.91
2022-12-08T03:55:05.667Z,100276.59
2022-12-08T03:58:07.192Z,100261.78
2022-12-08T04:01:08.852Z,100256.47
2022-12-08T04:04:10.355Z,100257.31
2022-12-08T04:07:11.890Z,100243.31
2022-12-08T04:10:13.511Z,100247.72
2022-12-08T04:13:15.157Z,100241.69
2022-12-08T04:16:22.577Z,100244.38
2022-12-08T04:19:24.163Z,100250.50
2022-12-08T04:22:25.662Z,100246.94
2022-12-08T04:25:27.777Z,100251.22
2022-12-08T04:28:32.443Z,100246.91
2022-12-08T04:31:34.014Z,100245.97
2022-12-08T04:34:35.587Z,100239.81
2022-12-08T04:37:37.139Z,100256.34
2022-12-08T04:40:39.225Z,100244.97
2022-12-08T04:43:41.666Z,100240.59
2022-12-08T04:46:43.781Z,100229.25
2022-12-08T04:49:45.507Z,100227.50
2022-12-08T04:52:47.182Z,100232.75
2022-12-08T04:55:49.698Z,100220.47
2022-12-08T04:58:51.316Z,100220.47
2022-12-08T05:01:52.958Z,100225.66
2022-12-08T05:04:54.747Z,100242.19
2022-12-08T05:07:56.305Z,100230.78
2022-12-08T05:11:10.069Z,100230.72
2022-12-08T05:14:13.559Z,100234.19
2022-12-08T05:17:18.750Z,100219.38
2022-12-08T05:20:20.314Z,100235.13
2022-12-08T05:23:22.066Z,100222.91
2022-12-08T05:26:23.639Z,100222.00
2022-12-08T05:29:25.213Z,100221.06
2022-12-08T05:32:26.818Z,100231.53
2022-12-08T05:35:28.330Z,100226.22
2022-12-08T05:38:29.931Z,100235.81
2022-12-08T05:41:31.508Z,100233.19
2022-12-08T05:44:33.018Z,100234.88
2022-12-08T05:47:36.206Z,100227.06
2022-12-08T05:50:37.973Z,100231.41
2022-12-08T05:53:39.554Z,100225.22
2022-12-08T05:56:41.150Z,100223.38
2022-12-08T05:59:42.697Z,100214.72
2022-12-08T06:02:44.368Z,100216.56
2022-12-08T06:05:47.146Z,100220.94
2022-12-08T06:08:49.138Z,100221.69
2022-12-08T06:11:50.768Z,100224.88
2022-12-08T06:14:52.456Z,100205.47
2022-12-08T06:17:54.009Z,100212.41
2022-12-08T06:21:05.659Z,100209.00
2022-12-08T06:24:07.457Z,100213.47
2022-12-08T06:27:09.023Z,100206.50
2022-12-08T06:30:10.761Z,100213.47
2022-12-08T06:33:12.330Z,100206.50
2022-12-08T06:36:15.576Z,100206.47
2022-12-08T06:39:17.113Z,100214.25
2022-12-08T06:42:37.367Z,100216.88
2022-12-08T06:45:40.979Z,100210.78
2022-12-08T06:48:42.630Z,100208.31
2022-12-08T06:51:44.239Z,100221.44
2022-12-08T06:54:45.775Z,100226.69
2022-12-08T06:57:47.268Z,100226.81
2022-12-08T07:00:49.124Z,100238.19
2022-12-08T07:03:50.693Z,100240.09
2022-12-08T07:06:52.272Z,100240.16
2022-12-08T07:09:53.879Z,100242.94
2022-12-08T07:12:55.496Z,100246.66
2022-12-08T07:15:57.032Z,100251.16
2022-12-08T07:18:59.943Z,100255.63
2022-12-08T07:22:01.508Z,100252.31
2022-12-08T07:25:03.183Z,100260.34
2022-12-08T07:28:08.727Z,100263.09
2022-12-08T07:31:30.550Z,100255.41
2022-12-08T07:34:32.065Z,100266.88
2022-12-08T07:37:34.778Z,100266.06
2022-12-08T07:40:38.338Z,100276.72
2022-12-08T07:43:40.549Z,100255.88
2022-12-08T07:46:42.177Z,100266.44
2022-12-08T07:49:43.831Z,100263.88
2022-12-08T07:52:45.386Z,100257.00
2022-12-08T07:55:47.138Z,100251.84
2022-12-08T07:58:48.967Z,100256.84
2022-12-08T08:02:06.499Z,100263.28
2022-12-08T08:05:13.000Z,100270.38
2022-12-08T08:08:14.747Z,100257.44
2022-12-08T08:11:20.904Z,100257.72
2022-12-08T08:14:23.288Z,100261.44
2022-12-08T08:17:25.126Z,100259.97
2022-12-08T08:20:27.039Z,100271.50
2022-12-08T08:23:28.622Z,100262.94
2022-12-08T08:26:30.171Z,100265.75
2022-12-08T08:29:31.726Z,100272.94
2022-12-08T08:32:34.504Z,100281.88
2022-12-08T08:35:36.101Z,100282.19
2022-12-08T08:38:40.439Z,100288.44
2022-12-08T08:41:42.270Z,100283.38
2022-12-08T08:44:43.822Z,100291.38
2022-12-08T08:47:45.454Z,100292.34
2022-12-08T08:50:47.034Z,100288.94
2022-12-08T08:53:48.684Z,100274.16
2022-12-08T08:56:50.284Z,100272.47
2022-12-08T08:59:51.796Z,100271.59
2022-12-08T09:02:53.348Z,100282.97
2022-12-08T09:05:56.244Z,100283.84
2022-12-08T09:08:57.949Z,100287.34
2022-12-08T09:11:59.489Z,100284.78
2022-12-08T09:15:01.074Z,100283.97
2022-12-08T09:18:02.660Z,100286.59
2022-12-08T09:21:09.857Z,100279.59
2022-12-08T09:24:15.743Z,100280.34
2022-12-08T09:27:17.314Z,100299.19
2022-12-08T09:30:18.810Z,100304.75
2022-12-08T09:33:20.539Z,100311.06
2022-12-08T09:36:22.262Z,100309.09
2022-12-08T09:39:24.117Z,100306.81
2022-12-08T09:42:47.650Z,100309.25
2022-12-08T09:45:51.708Z,100306.44
2022-12-08T09:48:56.074Z,100308.13
2022-12-08T09:51:57.976Z,100310.38
2022-12-08T09:55:03.280Z,100302.59
2022-12-08T09:58:12.481Z,100309.78
2022-12-08T10:01:14.724Z,100298.66
2022-12-08T10:04:26.690Z,100302.47
2022-12-08T10:07:43.726Z,100302.56
2022-12-08T10:10:58.524Z,100288.69
2022-12-08T10:14:53.234Z,100287.81
2022-12-08T10:17:56.136Z,100291.03
2022-12-08T10:21:10.687Z,100286.34
2022-12-08T10:24:50.936Z,100299.94
2022-12-08T10:27:54.783Z,100302.00
2022-12-08T10:30:56.433Z,100296.22
2022-12-08T10:34:01.093Z,100288.53
2022-12-08T10:37:09.627Z,100294.78
2022-12-08T10:40:13.201Z,100300.28
2022-12-08T10:43:22.089Z,100303.09
2022-12-08T10:46:28.206Z,100295.34
2022-12-08T10:49:32.411Z,100302.50
2022-12-08T10:52:39.163Z,100303.50
2022-12-08T10:55:52.673Z,100308.75
2022-12-08T10:59:14.886Z,100302.72
2022-12-08T11:02:20.382Z,100304.47
2022-12-08T11:05:26.096Z,100313.16
2022-12-08T11:08:29.593Z,100307.03
2022-12-08T11:11:38.683Z,100301.94
2022-12-08T11:14:43.007Z,100306.38
2022-12-08T11:17:48.701Z,100304.69
2022-12-08T11:21:05.917Z,100300.28
2022-12-08T11:24:21.819Z,100296.78
2022-12-08T11:27:23.496Z,100294.16
2022-12-08T11:30:31.140Z,100299.31
2022-12-08T11:33:34.651Z,100305.34
2022-12-08T11:36:38.199Z,100291.25
2022-12-08T11:39:47.828Z,100294.75
2022-12-08T11:43:06.183Z,100298.31
2022-12-08T11:46:13.467Z,100291.25
2022-12-08T11:49:15.586Z,100296.53
2022-12-08T11:52:20.168Z,100298.34
2022-12-08T11:55:37.340Z,100294.94
2022-12-08T11:59:18.580Z,100292.13
2022-12-08T12:02:24.194Z,100290.94
2022-12-08T12:06:12.950Z,100285.53
2022-12-08T12:09:55.527Z,100288.50
2022-12-08T12:13:34.143Z,100295.19
2022-12-08T12:16:54.040Z,100288.75
2022-12-08T12:20:00.988Z,100286.47
2022-12-08T12:23:08.154Z,100285.75
2022-12-08T12:26:18.978Z,100282.31
2022-12-08T12:29:23.827Z,100281.53
2022-12-08T12:32:27.311Z,100276.28
2022-12-08T12:35:34.552Z,100278.06
2022-12-08T12:38:59.078Z,100284.28
2022-12-08T12:42:02.667Z,100284.47
2022-12-08T12:45:16.458Z,100290.69
2022-12-08T12:48:24.619Z,100288.97
2022-12-08T12:51:36.504Z,100282.84
2022-12-08T12:54:43.229Z,100281.09
2022-12-08T12:57:57.251Z,100281.94
2022-12-08T13:01:14.050Z,100290.69
2022-12-08T13:04:17.374Z,100280.22
2022-12-08T13:07:25.533Z,100283.00
2022-12-08T13:10:40.192Z,100282.19
2022-12-08T13:14:04.716Z,100287.53
2022-12-08T13:17:13.643Z,100287.53
2022-12-08T13:20:47.381Z,100281.38
2022-12-08T13:24:10.646Z,100290.81
2022-12-08T13:27:12.159Z,100292.47
2022-12-08T13:30:43.478Z,100289.53
2022-12-08T13:33:45.113Z,100280.53
2022-12-08T13:37:02.506Z,100288.16
2022-12-08T13:40:16.617Z,100288.22
2022-12-08T13:43:55.581Z,100295.50
2022-12-08T13:52:37.336Z,100292.78
2022-12-08T13:57:42.804Z,100300.50
2022-12-08T14:00:54.982Z,100304.34
2022-12-08T14:04:30.938Z,100305.38
2022-12-08T14:07:21.231Z,100301.19
2022-12-08T14:10:27.814Z,100307.44
2022-12-08T14:13:31.752Z,100310.28
2022-12-08T14:16:38.549Z,100308.66
2022-12-08T14:19:43.940Z,100313.19
2022-12-08T14:22:46.409Z,100313.41
2022-12-08T14:25:48.382Z,100317.94
2022-12-08T14:28:50.012Z,100320.78
2022-12-08T14:31:53.928Z,100320.06
2022-12-08T14:34:55.674Z,100315.84
2022-12-08T14:38:01.499Z,100323.94
2022-12-08T14:41:06.557Z,100325.00
2022-12-08T14:44:23.799Z,100325.22
2022-12-08T14:47:32.738Z,100331.50
2022-12-08T14:50:45.247Z,100342.22
2022-12-08T14:53:56.282Z,100338.34
2022-12-08T14:57:00.284Z,100338.25
2022-12-08T15:00:09.070Z,100335.94
2022-12-08T15:03:13.330Z,100333.34
2022-12-08T15:06:15.248Z,100340.84
2022-12-08T15:09:48.710Z,100341.47
2022-12-08T15:13:19.651Z,100340.66
2022-12-08T15:16:32.050Z,100341.44
2022-12-08T15:19:34.236Z,100343.88
2022-12-08T15:22:35.774Z,100351.34
2022-12-08T15:25:37.755Z,100354.47
2022-12-08T15:28:39.272Z,100357.41
2022-12-08T15:31:40.933Z,100362.13
2022-12-08T15:34:42.638Z,100360.81
2022-12-08T15:37:44.668Z,100356.72
2022-12-08T15:40:46.391Z,100361.38
2022-12-08T15:43:47.884Z,100369.44
2022-12-08T15:46:50.192Z,100363.56
2022-12-08T15:49:55.533Z,100363.88
2022-12-08T15:52:57.066Z,100365.84
2022-12-08T15:59:24.019Z,100361.91
2022-12-08T16:02:25.753Z,100365.63
2022-12-08T16:05:44.521Z,100369.28
2022-12-08T16:09:06.373Z,100370.25
2022-12-08T16:13:40.540Z,100367.75
2022-12-08T16:16:02.207Z,100380.22
2022-12-08T16:19:03.852Z,100381.28
2022-12-08T16:22:44.792Z,100383.13
2022-12-08T16:25:36.430Z,100390.19
2022-12-08T16:28:55.268Z,100386.03
2022-12-08T16:31:56.911Z,100391.44
2022-12-08T16:34:58.560Z,100390.75
2022-12-08T16:38:00.147Z,100390.88
2022-12-08T16:41:20.400Z,100390.13
2022-12-08T16:44:21.979Z,100395.09
2022-12-08T16:47:23.547Z,100389.03
2022-12-08T16:50:30.863Z,100393.75
2022-12-08T16:53:32.374Z,100398.97
2022-12-08T16:56:34.003Z,100403.44
2022-12-08T16:59:37.411Z,100399.41
2022-12-08T17:02:38.977Z,100403.94
2022-12-08T17:05:41.555Z,100404.75
2022-12-08T17:08:44.090Z,100410.00
2022-12-08T17:11:45.664Z,100411.84
2022-12-08T17:14:47.458Z,100412.66
2022-12-08T17:17:49.018Z,100404.81
2022-12-08T17:20:50.561Z,100407.47
2022-12-08T17:23:52.095Z,100411.63
2022-12-08T17:26:53.644Z,100411.31
2022-12-08T17:29:55.252Z,100406.56
2022-12-08T17:32:57.179Z,100411.41
2022-12-08T17:35:58.730Z,100416.06
2022-12-08T17:39:01.238Z,100422.56
2022-12-08T17:42:02.988Z,100417.66
2022-12-08T17:45:06.492Z,100428.81
2022-12-08T17:48:08.535Z,100423.16
2022-12-08T17:51:10.224Z,100422.50
2022-12-08T17:54:11.779Z,100416.78
2022-12-08T17:57:13.380Z,100416.06
2022-12-08T18:00:15.798Z,100423.25
2022-12-08T18:03:18.258Z,100415.63
2022-12-08T18:06:20.330Z,100419.41
2022-12-08T18:09:21.999Z,100404.88
2022-12-08T18:12:24.074Z,100412.03
2022-12-08T18:15:26.109Z,100406.22
2022-12-08T18:18:27.705Z,100408.13
2022-12-08T18:21:29.401Z,100402.91
2022-12-08T18:24:31.295Z,100399.41
2022-12-08T18:27:36.288Z,100402.91
2022-12-08T18:30:40.605Z,100394.19
2022-12-08T18:33:43.521Z,100398.47
2022-12-08T18:36:45.074Z,100401.94
2022-12-08T18:39:46.619Z,100406.28
2022-12-08T18:42:48.258Z,100412.44
2022-12-08T18:45:49.789Z,100422.03
2022-12-08T18:48:52.175Z,100427.34
2022-12-08T18:51:53.777Z,100420.44
2022-12-08T18:55:06.249Z,100422.44
2022-12-08T18:58:10.902Z,100429.53
2022-12-08T19:01:16.120Z,100429.66
2022-12-08T19:04:28.386Z,100421.88
2022-12-08T19:07:30.836Z,100427.97
2022-12-08T19:10:35.516Z,100426.84
2022-12-08T19:13:37.268Z,100427.75
2022-12-08T19:16:38.998Z,100427.84
2022-12-08T19:19:40.525Z,100429.78
2022-12-08T19:22:42.067Z,100428.22
2022-12-08T19:25:43.675Z,100430.97
2022-12-08T19:28:45.464Z,100430.13
2022-12-08T19:31:47.158Z,100429.31
2022-12-08T19:34:48.785Z,100432.03
2022-12-08T19:37:50.408Z,100439.09
2022-12-08T19:41:10.314Z,100440.03
2022-12-08T19:44:34.321Z,100450.50
2022-12-08T19:47:36.063Z,100440.06
2022-12-08T19:50:40.412Z,100437.41
2022-12-08T19:53:47.290Z,100438.22
2022-12-08T19:56:49.397Z,100443.38
2022-12-08T19:59:56.166Z,100438.00
2022-12-08T20:02:59.839Z,100450.16
2022-12-08T20:06:01.622Z,100453.63
2022-12-08T20:09:03.214Z,100451.09
2022-12-08T20:12:05.103Z,100445.97
2022-12-08T20:15:08.698Z,100451.09
2022-12-08T20:18:11.896Z,100449.50
2022-12-08T20:21:13.595Z,100450.44
2022-12-08T20:24:16.876Z,100452.19
2022-12-08T20:27:18.428Z,100446.88
2022-12-08T20:30:20.064Z,100451.97
2022-12-08T20:33:21.875Z,100448.44
2022-12-08T20:36:23.649Z,100451.06
2022-12-08T20:39:25.620Z,100446.72
2022-12-08T20:42:27.289Z,100452.81
2022-12-08T20:45:28.899Z,100455.50
2022-12-08T20:48:30.520Z,100453.84
2022-12-08T20:51:33.598Z,100457.19
2022-12-08T20:54:36.735Z,100456.34
2022-12-08T20:57:38.337Z,100453.00
2022-12-08T21:00:39.939Z,100453.94
2022-12-08T21:03:42.277Z,100449.63
2022-12-08T21:06:44.003Z,100448.84
2022-12-08T21:09:45.872Z,100447.03
2022-12-08T21:12:47.611Z,100442.72
2022-12-08T21:15:49.438Z,100454.88
2022-12-08T21:18:51.126Z,100453.06
2022-12-08T21:21:52.823Z,100456.47
2022-12-08T21:24:54.473Z,100457.28
2022-12-08T21:27:56.024Z,100459.00
2022-12-08T21:30:57.862Z,100453.72
2022-12-08T21:34:01.299Z,100454.63
2022-12-08T21:37:03.092Z,100459.06
2022-12-08T21:40:06.242Z,100466.06
2022-12-08T21:43:08.177Z,100473.91
2022-12-08T21:46:17.209Z,100473.06
2022-12-08T21:49:19.226Z,100462.63
2022-12-08T21:52:20.818Z,100462.63
2022-12-08T21:55:23.867Z,100461.81
2022-12-08T21:58:26.418Z,100459.19
2022-12-08T22:01:28.628Z,100453.06
2022-12-08T22:04:30.652Z,100466.81
2022-12-08T22:07:32.670Z,100455.34
2022-12-08T22:10:34.363Z,100454.41
2022-12-08T22:13:38.999Z,100447.28
2022-12-08T22:16:40.934Z,100449.91
2022-12-08T22:19:42.944Z,100444.63
2022-12-08T22:22:45.965Z,100452.44
2022-12-08T22:25:58.384Z,100452.44
2022-12-08T22:29:00.490Z,100455.03
2022-12-08T22:32:02.225Z,100453.31
2022-12-08T22:35:04.134Z,100453.38
2022-12-08T22:38:05.634Z,100450.75
2022-12-08T22:41:07.938Z,100461.22
2022-12-08T22:44:09.614Z,100466.47
2022-12-08T22:47:11.549Z,100468.16
2022-12-08T22:50:13.187Z,100475.97
2022-12-08T22:53:14.885Z,100464.59
2022-12-08T22:56:17.874Z,100462.81
2022-12-08T22:59:19.450Z,100463.78
2022-12-08T23:02:20.986Z,100465.50
2022-12-08T23:05:22.630Z,100468.97
2022-12-08T23:08:24.814Z,100473.31
2022-12-08T23:11:29.890Z,100472.34
2022-12-08T23:14:31.416Z,100470.59
2022-12-08T23:17:33.219Z,100473.38
2022-12-08T23:20:35.134Z,100467.09
2022-12-08T23:23:37.150Z,100475.84
2022-12-08T23:26:38.796Z,100473.38
2022-12-08T23:29:40.407Z,100465.63
2022-12-08T23:32:42.274Z,100471.00
2022-12-08T23:35:43.897Z,100477.19
2022-12-08T23:38:45.836Z,100479.09
2022-12-08T23:41:47.578Z,100468.72
2022-12-08T23:44:49.427Z,100472.25
2022-12-08T23:47:51.034Z,100474.03
2022-12-08T23:50:52.720Z,100468.81
2022-12-08T23:53:54.291Z,100473.22
2022-12-08T23:56:55.928Z,100468.97
2022-12-08T23:59:57.514Z,100470.84
